Rechercher aéroport 
image banner adimage banner adimage banner ad
image banner ad

KBVI - Beaver County

Situé à Beaver Falls, United States

ICAO - BVI, IATA - BFP

Données fournies par Airmate  

Information générale

Coordonnées: N40°46'21" W80°23'29"
Élévation : 1253 feet MSL.
Variation magnétique : -07° East
Voir autres Aéroports à Pennsylvania

Données opérationnelles

Special qualification required
Heure actuelle UTC:
Heure actuelle locale:
Météo
METAR: KBVI 131935Z AUTO 22005KT 10SM SCT039 SCT049 BKN100 30/21 A2986 RMK AO2 T02950208
TAF: KBVI 131720Z 1318/1418 29004KT P6SM VCTS BKN050CB TEMPO 1318/1321 4SM -TSRA OVC040CB FM132300 32004KT P6SM SCT070 FM141500 26007KT P6SM SCT060
Voir NOTAMs / SUP AIP / TFR affectant cet aéroport [VIEW]
Fréquences de communication: [VIEW]

Pistes:

Identifiant RWYQFULongueur (ft)Largeur (ft)SurfaceLDA (ft)
1094°4501100ASPH
28274°4501100ASPH

Coordonnées de l'aéroport

Adresse: Beaver Falls United States

Autres services d'aviation

Écoles de pilotage

Moore Aviation, Inc.

Moore Aviation, Inc.
info@mooreaviation.com+1(724)843-4800

Aviation Certification And Education Solutions Inc

Aviation Certification And Education Solutions Inc
fly@acesbvi.com+1(724)891-2237

Vue satellite de KBVI